createdAt,value
2018-08-28T00:02:50.147Z,71.62
2018-08-28T00:07:47.677Z,70.98
2018-08-28T00:12:45.339Z,71.43
2018-08-28T00:17:42.754Z,71.43
2018-08-28T00:22:40.828Z,71.26
2018-08-28T00:27:38.288Z,70.88
2018-08-28T00:32:35.699Z,70.95
2018-08-28T00:37:33.084Z,71.00
2018-08-28T00:42:30.555Z,71.45
2018-08-28T00:47:28.624Z,71.09
2018-08-28T00:52:26.062Z,71.26
2018-08-28T00:57:23.599Z,70.57
2018-08-28T01:02:20.983Z,70.86
2018-08-28T01:07:18.389Z,71.58
2018-08-28T01:12:15.772Z,71.08
2018-08-28T01:17:14.115Z,71.59
2018-08-28T01:22:12.011Z,71.56
2018-08-28T01:27:09.416Z,70.61
2018-08-28T01:32:06.878Z,71.71
2018-08-28T01:37:04.284Z,71.46
2018-08-28T01:42:01.746Z,71.85
2018-08-28T01:46:59.303Z,71.76
2018-08-28T01:51:57.374Z,71.47
2018-08-28T01:56:54.762Z,71.72
2018-08-28T02:01:52.473Z,71.00
2018-08-28T02:06:49.899Z,71.34
2018-08-28T02:11:47.283Z,72.26
2018-08-28T02:16:44.670Z,73.00
2018-08-28T02:21:42.099Z,74.18
2018-08-28T02:26:39.548Z,74.09
2018-08-28T02:31:36.927Z,74.81
2018-08-28T02:36:34.319Z,75.83
2018-08-28T02:41:31.715Z,75.94
2018-08-28T02:46:29.091Z,76.06
2018-08-28T02:51:27.197Z,76.77
2018-08-28T02:56:25.169Z,76.90
2018-08-28T03:01:22.623Z,77.55
2018-08-28T03:06:20.091Z,77.03
2018-08-28T03:11:17.664Z,77.76
2018-08-28T03:16:15.159Z,77.54
2018-08-28T03:21:13.207Z,77.88
2018-08-28T03:26:10.575Z,78.48
2018-08-28T03:31:08.889Z,77.46
2018-08-28T03:36:06.281Z,77.38
2018-08-28T03:41:03.656Z,76.59
2018-08-28T03:46:01.061Z,76.92
2018-08-28T03:50:58.555Z,77.57
2018-08-28T03:55:56.552Z,77.45
2018-08-28T04:00:53.942Z,78.07
2018-08-28T04:05:51.443Z,77.25
2018-08-28T04:10:48.835Z,77.81
2018-08-28T04:15:46.249Z,77.46
2018-08-28T04:20:43.640Z,77.67
2018-08-28T04:25:41.071Z,76.82
2018-08-28T04:30:38.553Z,77.39
2018-08-28T04:35:35.913Z,76.93
2018-08-28T04:40:33.300Z,77.53
2018-08-28T04:45:30.727Z,78.09
2018-08-28T04:50:28.130Z,77.62
2018-08-28T04:55:25.538Z,78.67
2018-08-28T05:00:23.000Z,78.39
2018-08-28T05:05:21.074Z,78.26
2018-08-28T05:10:18.463Z,77.49
2018-08-28T05:15:15.840Z,77.16
2018-08-28T05:20:14.323Z,77.76
2018-08-28T05:25:11.782Z,76.72
2018-08-28T05:30:09.231Z,76.97
2018-08-28T05:35:06.776Z,76.76
2018-08-28T05:40:04.196Z,76.98
2018-08-28T05:45:01.621Z,76.88
2018-08-28T05:50:01.225Z,76.41
2018-08-28T05:54:58.985Z,74.70
2018-08-28T05:59:56.392Z,75.51
2018-08-28T06:04:53.776Z,75.89
2018-08-28T06:09:51.783Z,74.63
2018-08-28T06:14:49.251Z,73.73
2018-08-28T06:19:50.719Z,73.77
2018-08-28T06:24:48.104Z,72.62
2018-08-28T06:29:45.496Z,72.29
2018-08-28T06:34:42.879Z,71.96
2018-08-28T06:39:40.268Z,72.43
2018-08-28T06:44:38.664Z,71.60
2018-08-28T06:49:41.899Z,71.86
2018-08-28T06:54:39.384Z,71.21
2018-08-28T06:59:37.084Z,71.07
2018-08-28T07:04:34.476Z,69.66
2018-08-28T07:09:31.865Z,68.87
2018-08-28T07:14:29.271Z,68.96
2018-08-28T07:19:32.660Z,68.75
2018-08-28T07:24:30.134Z,68.68
2018-08-28T07:29:27.513Z,68.92
2018-08-28T07:34:25.027Z,68.55
2018-08-28T07:39:22.416Z,68.36
2018-08-28T07:44:20.922Z,69.19
2018-08-28T07:49:28.511Z,68.59
2018-08-28T07:54:26.000Z,67.79
2018-08-28T07:59:23.402Z,68.35
2018-08-28T08:04:20.814Z,68.25
2018-08-28T08:09:18.186Z,69.70
2018-08-28T08:14:15.571Z,68.91
2018-08-28T08:19:21.221Z,68.96
2018-08-28T08:24:18.695Z,68.93
2018-08-28T08:29:16.103Z,68.71
2018-08-28T08:34:13.504Z,70.08
2018-08-28T08:39:11.338Z,66.65
2018-08-28T08:44:08.734Z,65.23
2018-08-28T08:49:09.851Z,67.16
2018-08-28T08:54:07.292Z,66.20
2018-08-28T08:59:04.700Z,65.85
2018-08-28T09:04:02.464Z,64.21
2018-08-28T09:09:00.063Z,68.22
2018-08-28T09:13:57.450Z,65.95
2018-08-28T09:18:54.868Z,61.52
2018-08-28T09:23:52.274Z,64.90
2018-08-28T09:28:49.780Z,61.69
2018-08-28T09:33:48.078Z,59.42
2018-08-28T09:38:45.501Z,60.67
2018-08-28T09:43:43.236Z,58.79
2018-08-28T09:48:40.991Z,56.54
2018-08-28T09:53:38.372Z,57.64
2018-08-28T09:58:35.800Z,57.56
2018-08-28T10:03:33.218Z,55.65
2018-08-28T10:08:30.674Z,58.25
2018-08-28T10:13:28.176Z,59.96
2018-08-28T10:18:25.559Z,61.71
2018-08-28T10:23:23.087Z,61.72
2018-08-28T10:28:20.459Z,61.21
2018-08-28T10:33:17.942Z,60.09
2018-08-28T10:38:15.417Z,59.12
2018-08-28T10:43:12.787Z,59.44
2018-08-28T10:48:10.236Z,60.07
2018-08-28T10:53:07.747Z,58.79
2018-08-28T10:58:05.155Z,59.47
2018-08-28T11:03:02.578Z,58.00
2018-08-28T11:07:59.979Z,58.50
2018-08-28T11:12:57.384Z,56.62
2018-08-28T11:17:55.068Z,55.97
2018-08-28T11:22:52.599Z,57.72
2018-08-28T11:27:50.064Z,56.67
2018-08-28T11:32:47.555Z,57.71
2018-08-28T11:37:44.935Z,57.02
2018-08-28T11:42:42.353Z,58.94
2018-08-28T11:47:39.759Z,59.73
2018-08-28T11:52:37.540Z,61.61
2018-08-28T11:57:34.961Z,61.08
2018-08-28T12:02:32.358Z,60.57
2018-08-28T12:07:29.996Z,59.35
2018-08-28T12:12:27.340Z,58.16
2018-08-28T12:17:25.441Z,60.37
2018-08-28T12:22:23.043Z,59.16
2018-08-28T12:27:20.467Z,58.20
2018-08-28T12:32:17.863Z,58.58
2018-08-28T12:37:16.830Z,57.45
2018-08-28T12:42:27.116Z,57.20
2018-08-28T12:47:27.058Z,55.24
2018-08-28T12:52:27.759Z,53.68
2018-08-28T12:57:31.884Z,53.00
2018-08-28T13:02:31.636Z,50.67
2018-08-28T13:07:29.491Z,52.67
2018-08-28T13:12:28.253Z,51.90
2018-08-28T13:17:27.368Z,50.57
2018-08-28T13:22:25.414Z,48.39
2018-08-28T13:27:22.824Z,49.60
2018-08-28T13:32:20.207Z,45.79
2018-08-28T13:37:17.586Z,46.13
2018-08-28T13:42:14.981Z,44.43
2018-08-28T13:47:12.503Z,45.02
2018-08-28T13:52:13.305Z,44.95
2018-08-28T13:57:13.955Z,42.43
2018-08-28T14:02:12.393Z,42.74
2018-08-28T14:07:09.808Z,44.77
2018-08-28T14:12:07.219Z,43.60
2018-08-28T14:17:04.896Z,44.12
2018-08-28T14:22:02.273Z,43.32
2018-08-28T14:26:59.732Z,44.03
2018-08-28T14:31:57.171Z,42.48
2018-08-28T14:36:54.583Z,40.86
2018-08-28T14:41:52.245Z,44.03
2018-08-28T14:46:49.636Z,41.56
2018-08-28T14:51:47.366Z,41.28
2018-08-28T14:56:44.950Z,43.70
2018-08-28T15:01:42.211Z,41.37
2018-08-28T15:06:39.631Z,39.75
2018-08-28T15:11:37.055Z,43.42
2018-08-28T15:16:34.489Z,46.16
2018-08-28T15:21:32.023Z,45.40
2018-08-28T15:26:29.419Z,46.20
2018-08-28T15:31:26.890Z,46.42
2018-08-28T15:36:25.325Z,45.87
2018-08-28T15:41:22.710Z,45.71
2018-08-28T15:46:20.120Z,46.33
2018-08-28T15:51:17.660Z,44.40
2018-08-28T15:56:14.995Z,44.11
2018-08-28T16:01:12.420Z,45.74
2018-08-28T16:06:14.331Z,44.55
2018-08-28T16:11:13.737Z,47.10
2018-08-28T16:16:13.325Z,45.42
2018-08-28T16:21:13.311Z,45.18
2018-08-28T16:26:13.892Z,43.83
2018-08-28T16:31:12.307Z,41.46
2018-08-28T16:36:10.722Z,43.05
2018-08-28T16:41:09.235Z,43.58
2018-08-28T16:46:08.686Z,43.87
2018-08-28T16:51:07.086Z,41.82
2018-08-28T16:56:05.430Z,40.66
2018-08-28T17:01:04.499Z,41.39
2018-08-28T17:06:02.920Z,40.74
2018-08-28T17:11:01.178Z,39.03
2018-08-28T17:15:59.224Z,40.93
2018-08-28T17:20:56.651Z,41.46
2018-08-28T17:25:54.108Z,42.29
2018-08-28T17:30:51.544Z,42.21
2018-08-28T17:35:48.950Z,42.99
2018-08-28T17:40:46.340Z,44.34
2018-08-28T17:45:44.680Z,46.73
2018-08-28T17:50:42.059Z,50.08
2018-08-28T17:55:39.451Z,51.46
2018-08-28T18:00:36.851Z,52.01
2018-08-28T18:05:34.285Z,53.82
2018-08-28T18:10:31.737Z,53.93
2018-08-28T18:15:29.108Z,55.88
2018-08-28T18:20:26.507Z,55.47
2018-08-28T18:25:23.987Z,57.11
2018-08-28T18:30:21.395Z,58.19
2018-08-28T18:35:18.814Z,57.74
2018-08-28T18:40:16.501Z,56.98
2018-08-28T18:45:14.747Z,56.21
2018-08-28T18:50:13.775Z,55.90
2018-08-28T18:55:11.243Z,56.62
2018-08-28T19:00:08.688Z,56.04
2018-08-28T19:05:06.139Z,57.22
2018-08-28T19:10:03.628Z,57.12
2018-08-28T19:15:01.039Z,57.35
2018-08-28T19:19:59.458Z,58.29
2018-08-28T19:24:56.819Z,58.69
2018-08-28T19:29:54.227Z,57.91
2018-08-28T19:34:51.672Z,58.51
2018-08-28T19:39:49.051Z,58.74
2018-08-28T19:44:47.356Z,58.29
2018-08-28T19:49:48.758Z,59.95
2018-08-28T19:54:50.511Z,59.33
2018-08-28T19:59:54.245Z,59.26
2018-08-28T20:04:58.928Z,59.15
2018-08-28T20:09:58.730Z,59.45
2018-08-28T20:14:57.587Z,59.70
2018-08-28T20:19:56.773Z,59.80
2018-08-28T20:24:55.156Z,59.61
2018-08-28T20:29:53.368Z,60.25
2018-08-28T20:34:51.372Z,60.54
2018-08-28T20:39:49.601Z,60.04
2018-08-28T20:44:47.694Z,60.04
2018-08-28T20:49:46.804Z,60.71
2018-08-28T20:54:44.828Z,60.51
2018-08-28T20:59:42.592Z,60.08
2018-08-28T21:04:40.599Z,60.44
2018-08-28T21:09:38.438Z,60.94
2018-08-28T21:14:36.240Z,60.29
2018-08-28T21:19:36.955Z,61.06
2018-08-28T21:24:35.395Z,61.31
2018-08-28T21:29:33.105Z,62.37
2018-08-28T21:34:30.624Z,62.64
2018-08-28T21:39:28.003Z,61.19
2018-08-28T21:44:25.383Z,61.80
2018-08-28T21:49:29.667Z,61.79
2018-08-28T21:54:28.391Z,62.55
2018-08-28T21:59:25.765Z,63.22
2018-08-28T22:04:23.155Z,64.90
2018-08-28T22:09:20.592Z,66.02
2018-08-28T22:14:18.363Z,67.64
2018-08-28T22:19:27.633Z,67.60
2018-08-28T22:24:25.095Z,68.00
2018-08-28T22:29:22.459Z,68.99
2018-08-28T22:34:19.870Z,69.66
2018-08-28T22:39:17.255Z,70.17
2018-08-28T22:44:14.639Z,70.50
2018-08-28T22:49:16.448Z,70.69
2018-08-28T22:54:14.000Z,72.40
2018-08-28T22:59:11.533Z,73.39
2018-08-28T23:04:08.923Z,75.02
2018-08-28T23:09:07.071Z,75.46
2018-08-28T23:14:05.231Z,74.47
2018-08-28T23:19:03.726Z,74.03
2018-08-28T23:24:01.246Z,75.90
2018-08-28T23:28:58.639Z,75.37
2018-08-28T23:33:56.039Z,75.64
2018-08-28T23:38:53.391Z,73.95
2018-08-28T23:43:52.543Z,74.50
2018-08-28T23:48:49.932Z,75.66
2018-08-28T23:53:47.379Z,74.10
2018-08-28T23:58:44.811Z,75.65
